createdAt,value
2018-04-20T00:02:28.970Z,1.20
2018-04-20T00:04:59.818Z,1.23
2018-04-20T00:07:29.071Z,1.00
2018-04-20T00:09:58.111Z,1.20
2018-04-20T00:12:27.605Z,0.90
2018-04-20T00:14:57.128Z,1.30
2018-04-20T00:17:26.384Z,1.20
2018-04-20T00:19:55.709Z,1.47
2018-04-20T00:22:25.284Z,1.03
2018-04-20T00:24:55.398Z,1.30
2018-04-20T00:27:26.255Z,1.50
2018-04-20T00:29:55.409Z,1.10
2018-04-20T00:32:24.710Z,1.20
2018-04-20T00:34:53.973Z,1.10
2018-04-20T00:37:23.534Z,1.47
2018-04-20T00:39:52.753Z,2.10
2018-04-20T00:42:22.094Z,1.27
2018-04-20T00:47:25.407Z,1.20
2018-04-20T00:49:54.743Z,1.10
2018-04-20T00:52:24.381Z,1.37
2018-04-20T00:54:54.751Z,1.10
2018-04-20T00:57:24.065Z,1.30
2018-04-20T00:59:53.333Z,1.20
2018-04-20T01:02:22.385Z,1.10
2018-04-20T01:04:51.734Z,1.47
2018-04-20T01:07:22.819Z,1.00
2018-04-20T01:09:52.319Z,1.20
2018-04-20T01:12:21.555Z,0.93
2018-04-20T01:14:51.351Z,1.17
2018-04-20T01:17:20.417Z,1.50
2018-04-20T01:19:49.565Z,1.10
2018-04-20T01:22:18.875Z,1.20
2018-04-20T01:24:47.934Z,1.20
2018-04-20T01:27:17.904Z,1.07
2018-04-20T01:29:46.975Z,1.10
2018-04-20T01:32:16.293Z,1.20
2018-04-20T01:34:46.341Z,1.10
2018-04-20T01:37:15.830Z,1.20
2018-04-20T01:54:14.531Z,1.10
2018-04-20T01:56:55.093Z,1.20
2018-04-20T01:59:32.905Z,1.17
2018-04-20T02:02:12.461Z,1.13
2018-04-20T02:10:31.655Z,1.00
2018-04-20T02:13:01.102Z,1.50
2018-04-20T02:15:30.352Z,1.10
2018-04-20T02:17:59.512Z,1.13
2018-04-20T02:20:28.772Z,1.17
2018-04-20T02:22:57.876Z,1.70
2018-04-20T02:25:31.408Z,1.20
2018-04-20T02:28:03.005Z,1.10
2018-04-20T02:30:34.136Z,1.30
2018-04-20T02:33:03.459Z,0.97
2018-04-20T02:35:43.712Z,1.30
2018-04-20T02:38:13.714Z,1.50
2018-04-20T02:40:43.066Z,1.50
2018-04-20T02:43:12.299Z,1.93
2018-04-20T02:45:41.351Z,2.47
2018-04-20T02:48:10.673Z,2.27
2018-04-20T02:50:39.830Z,1.80
2018-04-20T02:53:08.854Z,1.70
2018-04-20T02:55:38.431Z,1.53
2018-04-20T03:00:51.753Z,1.97
2018-04-20T03:03:21.047Z,1.70
2018-04-20T03:05:50.224Z,1.50
2018-04-20T03:08:19.680Z,1.70
2018-04-20T03:10:49.726Z,1.23
2018-04-20T03:13:18.849Z,1.33
2018-04-20T03:15:48.968Z,1.80
2018-04-20T03:18:19.296Z,1.93
2018-04-20T03:20:49.434Z,1.80
2018-04-20T03:23:18.921Z,1.73
2018-04-20T03:25:47.833Z,1.97
2018-04-20T03:28:17.224Z,1.60
2018-04-20T03:30:46.079Z,2.10
2018-04-20T03:33:16.647Z,1.90
2018-04-20T03:35:45.838Z,2.20
2018-04-20T03:38:15.842Z,2.00
2018-04-20T03:40:45.707Z,2.20
2018-04-20T03:43:14.815Z,2.10
2018-04-20T03:45:44.125Z,1.93
2018-04-20T03:48:14.044Z,2.60
2018-04-20T03:50:43.386Z,2.10
2018-04-20T03:53:12.471Z,2.30
2018-04-20T03:55:41.498Z,2.67
2018-04-20T03:58:10.619Z,2.90
2018-04-20T04:00:40.848Z,2.83
2018-04-20T04:03:09.832Z,3.07
2018-04-20T04:05:39.942Z,3.07
2018-04-20T04:08:09.292Z,2.40
2018-04-20T04:10:38.779Z,3.30
2018-04-20T04:13:09.711Z,2.50
2018-04-20T04:15:38.889Z,2.37
2018-04-20T04:18:19.364Z,2.90
2018-04-20T04:21:09.150Z,2.50
2018-04-20T04:23:49.909Z,2.23
2018-04-20T04:26:30.478Z,2.80
2018-04-20T04:28:59.824Z,2.43
2018-04-20T04:31:29.048Z,2.30
2018-04-20T04:33:58.572Z,2.00
2018-04-20T04:36:27.650Z,2.37
2018-04-20T04:38:56.993Z,2.40
2018-04-20T04:41:26.268Z,2.50
2018-04-20T04:43:56.367Z,2.23
2018-04-20T04:46:25.782Z,2.90
2018-04-20T04:48:56.672Z,3.63
2018-04-20T04:51:26.482Z,2.33
2018-04-20T04:53:55.806Z,2.53
2018-04-20T04:56:24.865Z,2.40
2018-04-20T04:58:54.178Z,2.40
2018-04-20T05:01:23.446Z,2.60
2018-04-20T05:03:52.759Z,2.20
2018-04-20T05:06:22.001Z,2.20
2018-04-20T05:08:51.329Z,2.50
2018-04-20T05:11:20.697Z,2.10
2018-04-20T05:13:50.948Z,1.87
2018-04-20T05:16:20.431Z,2.00
2018-04-20T05:18:49.945Z,2.30
2018-04-20T05:21:19.034Z,1.97
2018-04-20T05:23:48.126Z,2.53
2018-04-20T05:26:18.218Z,2.47
2018-04-20T05:28:47.261Z,2.33
2018-04-20T05:31:16.307Z,2.20
2018-04-20T05:33:45.683Z,2.10
2018-04-20T05:36:14.941Z,2.13
2018-04-20T05:38:44.196Z,2.30
2018-04-20T05:41:13.708Z,2.17
2018-04-20T05:43:43.260Z,1.90
2018-04-20T05:46:12.751Z,1.97
2018-04-20T05:48:42.185Z,2.03
2018-04-20T05:51:11.402Z,2.10
2018-04-20T05:53:40.898Z,1.93
2018-04-20T05:56:10.416Z,1.93
2018-04-20T05:58:39.742Z,2.17
2018-04-20T06:01:09.025Z,1.60
2018-04-20T06:03:38.235Z,1.97
2018-04-20T06:06:07.515Z,2.20
2018-04-20T06:08:37.052Z,2.00
2018-04-20T06:11:06.370Z,2.00
2018-04-20T06:13:36.568Z,1.83
2018-04-20T06:16:07.280Z,2.73
2018-04-20T06:18:36.571Z,2.00
2018-04-20T06:21:05.871Z,2.10
2018-04-20T06:23:35.227Z,2.17
2018-04-20T06:26:05.714Z,1.90
2018-04-20T06:28:35.234Z,2.17
2018-04-20T06:31:04.744Z,1.50
2018-04-20T06:33:34.002Z,2.50
2018-04-20T06:36:03.111Z,2.10
2018-04-20T06:38:32.221Z,2.10
2018-04-20T06:41:01.577Z,1.93
2018-04-20T06:43:30.588Z,1.70
2018-04-20T06:46:00.133Z,1.83
2018-04-20T06:48:29.183Z,1.77
2018-04-20T06:50:58.467Z,2.40
2018-04-20T06:53:27.816Z,2.43
2018-04-20T06:55:57.756Z,2.00
2018-04-20T06:58:27.677Z,1.97
2018-04-20T07:00:57.666Z,1.67
2018-04-20T07:03:26.965Z,2.13
2018-04-20T07:05:56.252Z,1.87
2018-04-20T07:08:25.991Z,1.83
2018-04-20T07:10:55.278Z,1.60
2018-04-20T07:13:24.483Z,1.90
2018-04-20T07:15:53.977Z,1.55
2018-04-20T07:18:23.871Z,2.87
2018-04-20T07:20:53.167Z,2.50
2018-04-20T07:23:22.714Z,2.40
2018-04-20T07:25:52.169Z,2.10
2018-04-20T07:28:21.277Z,2.40
2018-04-20T07:30:50.802Z,2.80
2018-04-20T07:33:20.266Z,2.30
2018-04-20T07:35:49.771Z,2.55
2018-04-20T07:38:19.097Z,3.10
2018-04-20T07:40:48.164Z,3.05
2018-04-20T07:43:17.373Z,4.10
2018-04-20T07:45:46.763Z,6.30
2018-04-20T07:48:15.996Z,6.30
2018-04-20T07:50:45.076Z,8.20
2018-04-20T07:53:14.359Z,2.85
2018-04-20T07:55:43.458Z,2.70
2018-04-20T07:58:12.737Z,5.50
2018-04-20T08:00:42.022Z,7.03
2018-04-20T08:03:11.287Z,7.43
2018-04-20T08:05:40.340Z,11.38
2018-04-20T08:08:09.496Z,9.75
2018-04-20T08:10:39.498Z,9.82
2018-04-20T08:13:08.608Z,6.03
2018-04-20T08:15:38.085Z,14.70
2018-04-20T08:18:07.426Z,11.05
2018-04-20T08:20:37.589Z,7.93
2018-04-20T08:23:07.120Z,8.52
2018-04-20T08:25:36.180Z,10.90
2018-04-20T08:28:06.588Z,16.10
2018-04-20T08:30:35.805Z,15.65
2018-04-20T08:33:04.888Z,14.10
2018-04-20T08:35:33.897Z,11.90
2018-04-20T08:38:03.204Z,11.85
2018-04-20T08:40:32.506Z,11.75
2018-04-20T08:43:02.202Z,8.43
2018-04-20T08:45:31.530Z,8.65
2018-04-20T08:48:00.814Z,8.23
2018-04-20T08:50:30.321Z,5.80
2018-04-20T08:53:00.425Z,5.30
2018-04-20T08:55:29.802Z,6.57
2018-04-20T08:57:59.133Z,7.37
2018-04-20T09:00:28.502Z,8.05
2018-04-20T09:02:57.727Z,7.22
2018-04-20T09:05:27.090Z,5.10
2018-04-20T09:07:56.357Z,5.53
2018-04-20T09:10:25.847Z,5.20
2018-04-20T09:12:55.101Z,4.55
2018-04-20T09:15:24.228Z,4.93
2018-04-20T09:17:53.545Z,3.95
2018-04-20T09:20:22.891Z,3.58
2018-04-20T09:22:53.251Z,4.22
2018-04-20T09:25:22.529Z,4.43
2018-04-20T09:27:51.858Z,6.40
2018-04-20T09:30:21.946Z,5.97
2018-04-20T09:32:51.289Z,6.05
2018-04-20T09:35:20.763Z,6.85
2018-04-20T09:37:49.850Z,7.20
2018-04-20T09:40:19.126Z,7.18
2018-04-20T09:42:48.424Z,4.85
2018-04-20T09:45:17.579Z,4.20
2018-04-20T09:47:46.862Z,4.20
2018-04-20T09:50:17.373Z,4.97
2018-04-20T09:52:46.476Z,4.20
2018-04-20T09:55:15.681Z,6.80
2018-04-20T09:57:44.780Z,6.40
2018-04-20T10:00:19.609Z,6.60
2018-04-20T10:02:49.080Z,6.22
2018-04-20T10:05:23.813Z,6.12
2018-04-20T10:07:53.106Z,4.95
2018-04-20T10:10:22.567Z,5.65
2018-04-20T10:12:51.938Z,7.22
2018-04-20T10:15:21.013Z,7.43
2018-04-20T10:17:50.198Z,6.85
2018-04-20T10:20:19.401Z,11.05
2018-04-20T10:22:48.602Z,7.70
2018-04-20T10:25:19.142Z,4.25
2018-04-20T10:27:48.439Z,4.87
2018-04-20T10:30:17.871Z,4.60
2018-04-20T10:32:47.378Z,4.32
2018-04-20T10:35:17.681Z,9.10
2018-04-20T10:37:47.196Z,7.65
2018-04-20T10:40:17.196Z,4.40
2018-04-20T10:42:46.606Z,4.00
2018-04-20T10:45:15.761Z,5.03
2018-04-20T10:47:44.906Z,14.02
2018-04-20T10:50:14.237Z,40.78
2018-04-20T10:52:43.254Z,18.15
2018-04-20T10:55:12.599Z,7.62
2018-04-20T10:57:41.695Z,4.50
2018-04-20T11:00:10.782Z,7.10
2018-04-20T11:02:39.818Z,4.80
2018-04-20T11:05:09.155Z,3.60
2018-04-20T11:07:38.446Z,4.00
2018-04-20T11:10:07.550Z,4.50
2018-04-20T11:12:36.880Z,3.92
2018-04-20T11:15:05.971Z,4.10
2018-04-20T11:17:35.641Z,3.35
2018-04-20T11:20:05.153Z,3.75
2018-04-20T11:22:34.679Z,3.30
2018-04-20T11:25:04.035Z,3.58
2018-04-20T11:27:34.123Z,4.25
2018-04-20T11:30:03.398Z,4.20
2018-04-20T11:32:33.655Z,3.80
2018-04-20T11:35:03.060Z,4.45
2018-04-20T11:37:32.285Z,4.55
2018-04-20T11:40:01.622Z,5.10
2018-04-20T11:42:30.883Z,4.40
2018-04-20T11:45:00.411Z,4.00
2018-04-20T11:47:29.515Z,4.05
2018-04-20T11:49:59.519Z,4.97
2018-04-20T11:52:29.037Z,4.53
2018-04-20T11:54:58.277Z,4.43
2018-04-20T11:57:28.086Z,5.18
2018-04-20T11:59:57.420Z,4.68
2018-04-20T12:02:26.915Z,4.85
2018-04-20T12:04:56.904Z,4.75
2018-04-20T12:07:25.954Z,4.70
2018-04-20T12:09:55.105Z,5.15
2018-04-20T12:12:24.541Z,4.90
2018-04-20T12:14:53.883Z,4.97
2018-04-20T12:17:23.151Z,5.80
2018-04-20T12:19:52.271Z,5.90
2018-04-20T12:22:21.294Z,4.53
2018-04-20T12:24:50.658Z,4.87
2018-04-20T12:27:20.009Z,6.18
2018-04-20T12:29:50.236Z,5.57
2018-04-20T12:32:19.379Z,4.97
2018-04-20T12:34:48.895Z,4.72
2018-04-20T12:37:18.226Z,4.53
2018-04-20T12:39:47.451Z,5.25
2018-04-20T12:42:24.377Z,5.55
2018-04-20T12:44:53.612Z,5.72
2018-04-20T12:47:22.919Z,4.85
2018-04-20T12:49:52.301Z,6.32
2018-04-20T12:52:21.385Z,5.55
2018-04-20T12:54:50.613Z,6.10
2018-04-20T12:57:19.908Z,5.90
2018-04-20T12:59:49.225Z,5.35
2018-04-20T13:02:18.757Z,5.82
2018-04-20T13:04:48.100Z,5.95
2018-04-20T13:07:17.154Z,5.90
2018-04-20T13:09:46.520Z,6.15
2018-04-20T13:12:15.900Z,7.05
2018-04-20T13:14:45.330Z,5.55
2018-04-20T13:17:16.017Z,5.65
2018-04-20T13:19:45.357Z,6.60
2018-04-20T13:22:14.878Z,5.80
2018-04-20T13:24:44.464Z,5.68
2018-04-20T13:27:13.765Z,5.82
2018-04-20T13:29:42.982Z,5.50
2018-04-20T13:32:13.086Z,6.10
2018-04-20T13:34:42.394Z,5.80
2018-04-20T13:37:12.275Z,6.20
2018-04-20T13:39:41.627Z,6.65
2018-04-20T13:42:11.096Z,6.62
2018-04-20T13:44:40.596Z,7.28
2018-04-20T13:47:10.101Z,6.85
2018-04-20T13:49:39.393Z,6.50
2018-04-20T13:52:08.916Z,7.53
2018-04-20T13:54:38.028Z,8.25
2018-04-20T13:57:07.164Z,7.22
2018-04-20T13:59:36.717Z,7.20
2018-04-20T14:02:06.841Z,7.87
2018-04-20T14:04:36.423Z,8.90
2018-04-20T14:07:05.634Z,8.43
2018-04-20T14:09:34.890Z,7.20
2018-04-20T14:12:04.018Z,8.07
2018-04-20T14:14:33.134Z,8.25
2018-04-20T14:17:02.394Z,8.43
2018-04-20T14:19:31.553Z,9.05
2018-04-20T14:22:00.785Z,8.85
2018-04-20T14:24:30.049Z,8.25
2018-04-20T14:26:59.777Z,6.82
2018-04-20T14:29:29.089Z,7.32
2018-04-20T14:31:58.789Z,6.80
2018-04-20T14:34:29.117Z,6.18
2018-04-20T14:36:59.079Z,5.43
2018-04-20T14:39:28.333Z,6.97
2018-04-20T14:41:57.507Z,7.10
2018-04-20T14:44:26.790Z,6.10
2018-04-20T14:46:57.109Z,6.43
2018-04-20T14:49:26.521Z,5.93
2018-04-20T14:51:55.897Z,5.90
2018-04-20T14:54:25.151Z,5.60
2018-04-20T14:56:54.952Z,5.97
2018-04-20T14:59:24.397Z,6.00
2018-04-20T15:01:53.664Z,6.33
2018-04-20T15:04:22.994Z,6.93
2018-04-20T15:06:52.245Z,5.90
2018-04-20T15:09:21.549Z,6.17
2018-04-20T15:11:51.280Z,6.60
2018-04-20T15:14:21.091Z,5.43
2018-04-20T15:16:51.332Z,5.57
2018-04-20T15:19:21.100Z,6.07
2018-04-20T15:21:50.217Z,4.80
2018-04-20T15:24:19.727Z,5.40
2018-04-20T15:26:49.044Z,4.57
2018-04-20T15:29:18.367Z,5.27
2018-04-20T15:31:47.412Z,4.57
2018-04-20T15:34:16.501Z,5.00
2018-04-20T15:36:46.816Z,4.60
2018-04-20T15:39:16.353Z,5.50
2018-04-20T15:41:45.452Z,4.30
2018-04-20T15:44:14.753Z,4.70
2018-04-20T15:46:44.114Z,4.07
2018-04-20T15:49:13.373Z,4.30
2018-04-20T15:51:42.630Z,4.70
2018-04-20T15:54:12.178Z,4.50
2018-04-20T15:56:41.454Z,4.53
2018-04-20T15:59:11.434Z,4.20
2018-04-20T16:01:40.725Z,4.63
2018-04-20T16:04:10.277Z,5.13
2018-04-20T16:06:39.643Z,4.20
2018-04-20T16:09:09.082Z,3.80
2018-04-20T16:11:38.479Z,4.77
2018-04-20T16:14:07.963Z,4.70
2018-04-20T16:16:37.074Z,4.90
2018-04-20T16:19:07.599Z,4.17
2018-04-20T16:21:36.673Z,6.00
2018-04-20T16:24:05.945Z,6.10
2018-04-20T16:26:35.072Z,4.80
2018-04-20T16:29:04.158Z,5.60
2018-04-20T16:31:33.447Z,4.87
2018-04-20T16:34:02.777Z,4.60
2018-04-20T16:36:32.048Z,6.77
2018-04-20T16:39:02.191Z,6.37
2018-04-20T16:41:31.484Z,7.30
2018-04-20T16:44:01.015Z,8.13
2018-04-20T16:46:29.853Z,7.37
2018-04-20T16:48:59.238Z,7.30
2018-04-20T16:51:28.253Z,6.63
2018-04-20T16:53:57.530Z,7.53
2018-04-20T16:56:27.068Z,6.93
2018-04-20T16:58:56.639Z,6.93
2018-04-20T17:01:26.090Z,6.60
2018-04-20T17:03:55.623Z,8.10
2018-04-20T17:06:24.849Z,8.27
2018-04-20T17:08:54.261Z,7.07
2018-04-20T17:11:23.532Z,7.13
2018-04-20T17:13:52.780Z,7.60
2018-04-20T17:16:22.110Z,8.70
2018-04-20T17:18:51.192Z,7.43
2018-04-20T17:21:20.442Z,8.30
2018-04-20T17:23:49.666Z,7.90
2018-04-20T17:26:19.223Z,9.40
2018-04-20T17:28:48.453Z,6.70
2018-04-20T17:31:18.021Z,6.63
2018-04-20T17:33:48.220Z,8.80
2018-04-20T17:36:17.506Z,7.70
2018-04-20T17:38:47.038Z,8.63
2018-04-20T17:41:17.525Z,7.47
2018-04-20T17:43:46.829Z,7.57
2018-04-20T17:46:15.896Z,9.47
2018-04-20T17:48:45.657Z,8.10
2018-04-20T17:51:14.919Z,7.53
2018-04-20T17:53:44.073Z,7.90
2018-04-20T17:56:13.119Z,7.77
2018-04-20T17:58:42.414Z,7.80
2018-04-20T18:01:11.729Z,8.20
2018-04-20T18:03:41.028Z,6.90
2018-04-20T18:06:11.540Z,6.63
2018-04-20T18:08:41.061Z,7.77
2018-04-20T18:11:10.181Z,7.10
2018-04-20T18:13:39.420Z,7.10
2018-04-20T18:16:08.748Z,8.40
2018-04-20T18:18:37.848Z,6.27
2018-04-20T18:21:07.137Z,7.77
2018-04-20T18:23:36.208Z,6.97
2018-04-20T18:26:05.547Z,7.37
2018-04-20T18:28:34.676Z,7.20
2018-04-20T18:31:04.671Z,5.50
2018-04-20T18:33:34.016Z,6.53
2018-04-20T18:36:03.052Z,6.23
2018-04-20T18:38:32.478Z,6.40
2018-04-20T18:41:01.797Z,5.93
2018-04-20T18:43:32.055Z,6.50
2018-04-20T18:46:01.338Z,6.60
2018-04-20T18:48:30.670Z,6.53
2018-04-20T18:50:59.790Z,5.80
2018-04-20T18:53:29.277Z,6.77
2018-04-20T18:55:58.559Z,6.50
2018-04-20T18:58:27.843Z,7.47
2018-04-20T19:00:57.143Z,6.63
2018-04-20T19:03:26.433Z,7.00
2018-04-20T19:05:55.702Z,6.70
2018-04-20T19:08:24.987Z,7.00
2018-04-20T19:10:54.036Z,5.63
2018-04-20T19:13:23.307Z,5.90
2018-04-20T19:15:52.395Z,4.77
2018-04-20T19:18:21.775Z,6.23
2018-04-20T19:20:51.394Z,6.43
2018-04-20T19:23:20.976Z,5.90
2018-04-20T19:25:50.056Z,5.50
2018-04-20T19:28:19.560Z,5.50
2018-04-20T19:30:49.073Z,5.20
2018-04-20T19:33:18.155Z,2.60
2018-04-20T19:35:47.467Z,2.40
2018-04-20T19:38:16.295Z,2.10
2018-04-20T19:40:45.448Z,2.27
2018-04-20T19:43:14.715Z,2.40
2018-04-20T19:45:44.808Z,2.27
2018-04-20T19:48:14.343Z,2.20
2018-04-20T19:50:43.555Z,2.37
2018-04-20T19:53:13.098Z,2.10
2018-04-20T19:55:42.609Z,2.20
2018-04-20T19:58:11.637Z,2.27
2018-04-20T20:00:40.891Z,2.47
2018-04-20T20:03:10.968Z,2.50
2018-04-20T20:05:40.762Z,2.30
2018-04-20T20:08:09.962Z,1.80
2018-04-20T20:10:39.309Z,2.17
2018-04-20T20:13:08.362Z,2.13
2018-04-20T20:15:37.917Z,2.60
2018-04-20T20:18:07.126Z,2.50
2018-04-20T20:20:36.488Z,2.50
2018-04-20T20:23:05.576Z,2.13
2018-04-20T20:25:35.050Z,2.00
2018-04-20T20:28:04.517Z,2.27
2018-04-20T20:30:33.737Z,4.80
2018-04-20T20:33:03.703Z,4.67
2018-04-20T20:35:32.967Z,3.97
2018-04-20T20:38:02.487Z,3.90
2018-04-20T20:40:31.621Z,3.80
2018-04-20T20:43:02.248Z,4.00
2018-04-20T20:45:32.257Z,3.20
2018-04-20T20:48:02.567Z,2.30
2018-04-20T20:50:31.852Z,2.33
2018-04-20T20:53:01.149Z,3.70
2018-04-20T20:55:30.598Z,2.30
2018-04-20T20:58:00.378Z,4.20
2018-04-20T21:00:29.685Z,4.27
2018-04-20T21:02:59.806Z,3.60
2018-04-20T21:05:29.305Z,3.60
2018-04-20T21:07:58.781Z,2.90
2018-04-20T21:10:27.885Z,3.50
2018-04-20T21:12:57.219Z,4.40
2018-04-20T21:15:26.431Z,4.40
2018-04-20T21:17:56.454Z,3.90
2018-04-20T21:20:25.693Z,3.50
2018-04-20T21:22:55.004Z,1.83
2018-04-20T21:25:24.476Z,1.90
2018-04-20T21:27:53.961Z,2.23
2018-04-20T21:30:23.210Z,5.77
2018-04-20T21:32:52.563Z,5.53
2018-04-20T21:35:21.608Z,5.53
2018-04-20T21:37:51.062Z,5.63
2018-04-20T21:40:20.156Z,4.90
2018-04-20T21:42:49.607Z,5.00
2018-04-20T21:45:18.907Z,4.70
2018-04-20T21:47:48.213Z,5.40
2018-04-20T21:50:18.501Z,5.40
2018-04-20T21:52:47.797Z,5.13
2018-04-20T21:55:16.957Z,4.90
2018-04-20T21:57:46.635Z,5.30
2018-04-20T22:00:16.144Z,5.07
2018-04-20T22:02:45.457Z,5.50
2018-04-20T22:05:14.704Z,5.07
2018-04-20T22:07:44.000Z,5.27
2018-04-20T22:10:13.568Z,4.90
2018-04-20T22:12:42.823Z,5.40
2018-04-20T22:15:12.451Z,5.10
2018-04-20T22:17:42.594Z,4.70
2018-04-20T22:20:11.645Z,2.77
2018-04-20T22:22:41.127Z,2.50
2018-04-20T22:25:10.479Z,1.90
2018-04-20T22:27:39.767Z,1.97
2018-04-20T22:30:09.065Z,2.20
2018-04-20T22:32:38.422Z,2.10
2018-04-20T22:35:07.404Z,1.60
2018-04-20T22:37:36.511Z,2.20
2018-04-20T22:40:06.048Z,2.53
2018-04-20T22:42:35.180Z,1.60
2018-04-20T22:45:04.451Z,1.77
2018-04-20T22:47:34.431Z,1.50
2018-04-20T22:50:03.414Z,1.53
2018-04-20T22:52:33.533Z,1.60
2018-04-20T22:55:02.886Z,1.50
2018-04-20T22:57:33.153Z,1.47
2018-04-20T23:00:02.474Z,1.40
2018-04-20T23:02:31.777Z,1.20
2018-04-20T23:05:01.115Z,1.33
2018-04-20T23:07:30.603Z,1.37
2018-04-20T23:09:59.890Z,2.00
2018-04-20T23:12:28.967Z,1.47
2018-04-20T23:14:58.258Z,1.73
2018-04-20T23:17:27.626Z,1.53
2018-04-20T23:19:56.905Z,1.37
2018-04-20T23:22:26.449Z,1.63
2018-04-20T23:24:55.953Z,1.53
2018-04-20T23:27:24.999Z,1.77
2018-04-20T23:29:55.137Z,2.13
2018-04-20T23:32:24.222Z,1.80
2018-04-20T23:34:53.694Z,2.60
2018-04-20T23:37:22.433Z,2.80
2018-04-20T23:39:51.494Z,3.17
2018-04-20T23:42:20.737Z,4.60
2018-04-20T23:44:49.665Z,3.50
2018-04-20T23:47:18.818Z,2.80
2018-04-20T23:49:48.280Z,2.17
2018-04-20T23:52:17.012Z,1.70
2018-04-20T23:54:46.758Z,2.23
2018-04-20T23:57:15.996Z,2.27
2018-04-20T23:59:45.340Z,1.80
